sensor_id;sensor_type;location;lat;lon;timestamp;pressure;altitude;pressure_sealevel;temperature;humidity
54900;BME280;40801;41.924;25.562;2022-07-31T00:01:48;99153.72;;;26.74;43.49
54900;BME280;40801;41.924;25.562;2022-07-31T00:04:14;99147.22;;;26.61;43.69
54900;BME280;40801;41.924;25.562;2022-07-31T00:06:39;99143.41;;;26.75;43.22
54900;BME280;40801;41.924;25.562;2022-07-31T00:09:05;99150.47;;;26.79;43.16
54900;BME280;40801;41.924;25.562;2022-07-31T00:11:30;99135.84;;;26.79;43.19
54900;BME280;40801;41.924;25.562;2022-07-31T00:13:56;99142.75;;;26.67;43.36
54900;BME280;40801;41.924;25.562;2022-07-31T00:16:21;99131.69;;;26.67;43.58
54900;BME280;40801;41.924;25.562;2022-07-31T00:18:47;99127.78;;;26.65;43.45
54900;BME280;40801;41.924;25.562;2022-07-31T00:21:12;99119.56;;;26.58;43.51
54900;BME280;40801;41.924;25.562;2022-07-31T00:23:38;99112.47;;;26.57;43.65
54900;BME280;40801;41.924;25.562;2022-07-31T00:26:05;99109.34;;;26.54;43.67
54900;BME280;40801;41.924;25.562;2022-07-31T00:28:31;99101.78;;;26.59;43.41
54900;BME280;40801;41.924;25.562;2022-07-31T00:30:57;99105.31;;;26.59;43.52
54900;BME280;40801;41.924;25.562;2022-07-31T00:33:22;99099.44;;;26.57;43.52
54900;BME280;40801;41.924;25.562;2022-07-31T00:35:47;99102.19;;;26.57;43.77
54900;BME280;40801;41.924;25.562;2022-07-31T00:38:13;99081.69;;;26.54;43.75
54900;BME280;40801;41.924;25.562;2022-07-31T00:40:45;99086.03;;;26.55;43.70
54900;BME280;40801;41.924;25.562;2022-07-31T00:43:12;99075.03;;;26.52;43.92
54900;BME280;40801;41.924;25.562;2022-07-31T00:45:39;99057.66;;;26.51;43.87
54900;BME280;40801;41.924;25.562;2022-07-31T00:48:04;99053.25;;;26.54;43.94
54900;BME280;40801;41.924;25.562;2022-07-31T00:50:30;99050.19;;;26.48;44.15
54900;BME280;40801;41.924;25.562;2022-07-31T00:52:55;99043.94;;;26.44;44.41
54900;BME280;40801;41.924;25.562;2022-07-31T00:55:21;99047.53;;;26.41;44.62
54900;BME280;40801;41.924;25.562;2022-07-31T00:57:47;99055.56;;;26.32;45.17
54900;BME280;40801;41.924;25.562;2022-07-31T01:00:13;99057.94;;;26.34;45.44
54900;BME280;40801;41.924;25.562;2022-07-31T01:02:38;99057.94;;;26.34;45.50
54900;BME280;40801;41.924;25.562;2022-07-31T01:05:04;99052.81;;;26.32;45.40
54900;BME280;40801;41.924;25.562;2022-07-31T01:07:29;99054.81;;;26.28;45.67
54900;BME280;40801;41.924;25.562;2022-07-31T01:09:55;99065.22;;;26.20;45.62
54900;BME280;40801;41.924;25.562;2022-07-31T01:12:28;99058.00;;;26.27;45.64
54900;BME280;40801;41.924;25.562;2022-07-31T01:14:57;99076.69;;;26.19;45.64
54900;BME280;40801;41.924;25.562;2022-07-31T01:17:25;99075.19;;;26.14;45.65
54900;BME280;40801;41.924;25.562;2022-07-31T01:19:52;99082.31;;;26.12;45.97
54900;BME280;40801;41.924;25.562;2022-07-31T01:30:40;99068.31;;;25.96;48.31
54900;BME280;40801;41.924;25.562;2022-07-31T01:33:09;99062.31;;;26.04;47.49
54900;BME280;40801;41.924;25.562;2022-07-31T01:35:41;99056.78;;;26.01;47.87
54900;BME280;40801;41.924;25.562;2022-07-31T01:38:13;99056.00;;;26.00;48.47
54900;BME280;40801;41.924;25.562;2022-07-31T01:40:45;99067.47;;;25.99;48.80
54900;BME280;40801;41.924;25.562;2022-07-31T01:43:15;99069.69;;;25.84;48.96
54900;BME280;40801;41.924;25.562;2022-07-31T01:45:44;99078.28;;;25.89;48.90
54900;BME280;40801;41.924;25.562;2022-07-31T01:48:13;99079.47;;;25.88;48.80
54900;BME280;40801;41.924;25.562;2022-07-31T01:50:41;99072.38;;;25.87;49.21
54900;BME280;40801;41.924;25.562;2022-07-31T01:53:07;99072.91;;;25.79;49.10
54900;BME280;40801;41.924;25.562;2022-07-31T01:55:35;99079.56;;;25.81;49.06
54900;BME280;40801;41.924;25.562;2022-07-31T01:58:02;99079.63;;;25.78;49.26
54900;BME280;40801;41.924;25.562;2022-07-31T02:00:28;99076.91;;;25.74;49.72
54900;BME280;40801;41.924;25.562;2022-07-31T02:02:54;99073.31;;;25.77;49.61
54900;BME280;40801;41.924;25.562;2022-07-31T02:05:23;99074.53;;;25.73;49.71
54900;BME280;40801;41.924;25.562;2022-07-31T02:07:49;99073.38;;;25.70;49.87
54900;BME280;40801;41.924;25.562;2022-07-31T02:10:16;99071.09;;;25.61;50.20
54900;BME280;40801;41.924;25.562;2022-07-31T02:12:43;99067.25;;;25.55;50.54
54900;BME280;40801;41.924;25.562;2022-07-31T02:15:12;99062.13;;;25.54;50.75
54900;BME280;40801;41.924;25.562;2022-07-31T02:17:41;99058.63;;;25.50;50.93
54900;BME280;40801;41.924;25.562;2022-07-31T02:20:09;99060.66;;;25.46;50.69
54900;BME280;40801;41.924;25.562;2022-07-31T02:22:35;99053.16;;;25.46;50.74
54900;BME280;40801;41.924;25.562;2022-07-31T02:25:02;99057.06;;;25.49;50.30
54900;BME280;40801;41.924;25.562;2022-07-31T02:27:29;99051.81;;;25.58;50.05
54900;BME280;40801;41.924;25.562;2022-07-31T02:29:56;99050.88;;;25.38;50.66
54900;BME280;40801;41.924;25.562;2022-07-31T02:32:25;99042.13;;;25.46;50.08
54900;BME280;40801;41.924;25.562;2022-07-31T02:34:53;99040.03;;;25.54;50.10
54900;BME280;40801;41.924;25.562;2022-07-31T02:37:21;99053.84;;;25.54;50.24
54900;BME280;40801;41.924;25.562;2022-07-31T02:39:49;99048.38;;;25.50;50.45
54900;BME280;40801;41.924;25.562;2022-07-31T02:42:16;99043.25;;;25.49;50.47
54900;BME280;40801;41.924;25.562;2022-07-31T02:44:42;99043.16;;;25.56;50.31
54900;BME280;40801;41.924;25.562;2022-07-31T02:47:08;99047.53;;;25.53;50.38
54900;BME280;40801;41.924;25.562;2022-07-31T02:49:35;99045.66;;;25.47;51.00
54900;BME280;40801;41.924;25.562;2022-07-31T02:52:03;99055.47;;;25.51;50.73
54900;BME280;40801;41.924;25.562;2022-07-31T02:54:29;99053.91;;;25.50;50.66
54900;BME280;40801;41.924;25.562;2022-07-31T02:56:56;99046.84;;;25.46;50.96
54900;BME280;40801;41.924;25.562;2022-07-31T02:59:22;99067.81;;;25.40;51.20
54900;BME280;40801;41.924;25.562;2022-07-31T03:01:48;99061.97;;;25.34;51.45
54900;BME280;40801;41.924;25.562;2022-07-31T03:04:13;99057.72;;;25.26;51.60
54900;BME280;40801;41.924;25.562;2022-07-31T03:06:39;99061.25;;;25.26;51.65
54900;BME280;40801;41.924;25.562;2022-07-31T03:09:04;99068.47;;;25.13;52.49
54900;BME280;40801;41.924;25.562;2022-07-31T03:11:30;99062.97;;;25.13;52.51
54900;BME280;40801;41.924;25.562;2022-07-31T03:13:57;99061.84;;;25.07;52.40
54900;BME280;40801;41.924;25.562;2022-07-31T03:16:25;99058.81;;;24.94;52.73
54900;BME280;40801;41.924;25.562;2022-07-31T03:18:52;99064.00;;;24.85;53.14
54900;BME280;40801;41.924;25.562;2022-07-31T03:21:19;99065.19;;;24.84;53.29
54900;BME280;40801;41.924;25.562;2022-07-31T03:23:45;99074.69;;;24.80;53.62
54900;BME280;40801;41.924;25.562;2022-07-31T03:26:11;99073.53;;;24.77;53.47
54900;BME280;40801;41.924;25.562;2022-07-31T03:28:37;99085.41;;;24.70;53.55
54900;BME280;40801;41.924;25.562;2022-07-31T03:31:03;99078.41;;;24.62;54.32
54900;BME280;40801;41.924;25.562;2022-07-31T03:33:28;99066.63;;;24.55;54.70
54900;BME280;40801;41.924;25.562;2022-07-31T03:35:54;99066.22;;;24.56;54.63
54900;BME280;40801;41.924;25.562;2022-07-31T03:38:19;99069.88;;;24.43;55.73
54900;BME280;40801;41.924;25.562;2022-07-31T03:40:46;99073.00;;;24.45;55.54
54900;BME280;40801;41.924;25.562;2022-07-31T03:43:11;99071.53;;;24.26;56.46
54900;BME280;40801;41.924;25.562;2022-07-31T03:45:38;99071.53;;;24.26;56.62
54900;BME280;40801;41.924;25.562;2022-07-31T03:48:05;99077.06;;;24.29;57.12
54900;BME280;40801;41.924;25.562;2022-07-31T03:50:34;99082.56;;;24.26;56.52
54900;BME280;40801;41.924;25.562;2022-07-31T03:53:01;99096.81;;;24.14;57.80
54900;BME280;40801;41.924;25.562;2022-07-31T03:55:28;99088.13;;;24.19;56.85
54900;BME280;40801;41.924;25.562;2022-07-31T03:57:54;99082.31;;;24.06;57.36
54900;BME280;40801;41.924;25.562;2022-07-31T04:00:20;99081.91;;;24.04;57.19
54900;BME280;40801;41.924;25.562;2022-07-31T04:02:52;99090.97;;;24.04;57.17
54900;BME280;40801;41.924;25.562;2022-07-31T04:05:24;99087.84;;;24.02;56.91
54900;BME280;40801;41.924;25.562;2022-07-31T04:07:50;99090.22;;;23.93;57.36
54900;BME280;40801;41.924;25.562;2022-07-31T04:10:15;99083.50;;;24.01;56.95
54900;BME280;40801;41.924;25.562;2022-07-31T04:12:41;99089.13;;;23.80;57.75
54900;BME280;40801;41.924;25.562;2022-07-31T04:15:07;99088.28;;;23.87;57.26
54900;BME280;40801;41.924;25.562;2022-07-31T04:17:32;99084.84;;;23.72;58.04
54900;BME280;40801;41.924;25.562;2022-07-31T04:19:58;99077.41;;;23.51;58.63
54900;BME280;40801;41.924;25.562;2022-07-31T04:22:23;99078.94;;;23.73;57.65
54900;BME280;40801;41.924;25.562;2022-07-31T04:24:49;99081.25;;;23.78;57.52
54900;BME280;40801;41.924;25.562;2022-07-31T04:27:16;99085.88;;;23.96;57.25
54900;BME280;40801;41.924;25.562;2022-07-31T04:29:42;99088.59;;;24.06;56.92
54900;BME280;40801;41.924;25.562;2022-07-31T04:32:07;99080.25;;;24.17;56.69
54900;BME280;40801;41.924;25.562;2022-07-31T04:34:33;99090.84;;;24.22;56.50
54900;BME280;40801;41.924;25.562;2022-07-31T04:36:58;99104.28;;;24.13;57.00
54900;BME280;40801;41.924;25.562;2022-07-31T04:39:24;99097.13;;;24.26;56.01
54900;BME280;40801;41.924;25.562;2022-07-31T04:41:49;99097.88;;;24.37;55.88
54900;BME280;40801;41.924;25.562;2022-07-31T04:44:15;99101.88;;;24.29;56.20
54900;BME280;40801;41.924;25.562;2022-07-31T04:46:41;99106.94;;;24.27;55.91
54900;BME280;40801;41.924;25.562;2022-07-31T04:49:08;99111.31;;;24.32;55.64
54900;BME280;40801;41.924;25.562;2022-07-31T04:51:37;99107.38;;;24.33;56.38
54900;BME280;40801;41.924;25.562;2022-07-31T04:54:02;99104.13;;;24.45;55.49
54900;BME280;40801;41.924;25.562;2022-07-31T04:56:28;99108.88;;;24.41;55.95
54900;BME280;40801;41.924;25.562;2022-07-31T04:59:11;99111.81;;;24.71;55.04
54900;BME280;40801;41.924;25.562;2022-07-31T05:01:38;99110.84;;;24.92;54.67
54900;BME280;40801;41.924;25.562;2022-07-31T05:04:04;99115.94;;;24.97;54.27
54900;BME280;40801;41.924;25.562;2022-07-31T05:06:41;99107.91;;;25.14;54.06
54900;BME280;40801;41.924;25.562;2022-07-31T05:09:09;99117.28;;;25.23;53.89
54900;BME280;40801;41.924;25.562;2022-07-31T05:11:35;99116.06;;;25.28;53.55
54900;BME280;40801;41.924;25.562;2022-07-31T05:14:03;99110.56;;;25.24;53.49
54900;BME280;40801;41.924;25.562;2022-07-31T05:16:29;99114.38;;;25.38;53.06
54900;BME280;40801;41.924;25.562;2022-07-31T05:18:55;99113.59;;;25.37;52.79
54900;BME280;40801;41.924;25.562;2022-07-31T05:21:21;99109.13;;;25.50;52.19
54900;BME280;40801;41.924;25.562;2022-07-31T05:23:48;99102.41;;;25.51;51.97
54900;BME280;40801;41.924;25.562;2022-07-31T05:26:15;99112.47;;;25.65;51.46
54900;BME280;40801;41.924;25.562;2022-07-31T05:28:41;99107.31;;;25.71;51.46
54900;BME280;40801;41.924;25.562;2022-07-31T05:31:07;99104.91;;;25.73;51.14
54900;BME280;40801;41.924;25.562;2022-07-31T05:33:34;99105.13;;;25.89;50.53
54900;BME280;40801;41.924;25.562;2022-07-31T05:36:00;99104.16;;;26.03;50.10
54900;BME280;40801;41.924;25.562;2022-07-31T05:38:26;99109.59;;;26.10;49.82
54900;BME280;40801;41.924;25.562;2022-07-31T05:40:52;99111.69;;;26.02;50.13
54900;BME280;40801;41.924;25.562;2022-07-31T05:43:18;99111.66;;;26.33;49.38
54900;BME280;40801;41.924;25.562;2022-07-31T05:45:44;99112.09;;;26.28;49.50
54900;BME280;40801;41.924;25.562;2022-07-31T05:48:12;99107.53;;;26.44;49.40
54900;BME280;40801;41.924;25.562;2022-07-31T05:50:43;99113.31;;;26.53;49.00
54900;BME280;40801;41.924;25.562;2022-07-31T05:53:09;99109.97;;;26.66;48.56
54900;BME280;40801;41.924;25.562;2022-07-31T05:55:37;99105.94;;;26.70;48.47
54900;BME280;40801;41.924;25.562;2022-07-31T06:08:23;99105.81;;;27.67;46.83
54900;BME280;40801;41.924;25.562;2022-07-31T06:10:50;99101.66;;;27.95;45.87
54900;BME280;40801;41.924;25.562;2022-07-31T06:13:15;99112.47;;;28.10;45.42
54900;BME280;40801;41.924;25.562;2022-07-31T06:15:41;99100.69;;;28.22;45.15
54900;BME280;40801;41.924;25.562;2022-07-31T06:18:07;99103.06;;;28.03;45.39
54900;BME280;40801;41.924;25.562;2022-07-31T06:20:32;99104.47;;;28.31;44.54
54900;BME280;40801;41.924;25.562;2022-07-31T06:22:58;99099.25;;;28.33;44.90
54900;BME280;40801;41.924;25.562;2022-07-31T06:25:23;99102.31;;;28.39;45.02
54900;BME280;40801;41.924;25.562;2022-07-31T06:27:48;99098.06;;;28.51;45.24
54900;BME280;40801;41.924;25.562;2022-07-31T06:30:14;99105.03;;;28.75;44.37
54900;BME280;40801;41.924;25.562;2022-07-31T06:32:39;99104.50;;;28.80;44.16
54900;BME280;40801;41.924;25.562;2022-07-31T06:35:06;99099.28;;;28.82;44.20
54900;BME280;40801;41.924;25.562;2022-07-31T06:37:32;99091.22;;;28.88;43.39
54900;BME280;40801;41.924;25.562;2022-07-31T06:39:58;99089.97;;;28.92;43.24
54900;BME280;40801;41.924;25.562;2022-07-31T06:42:24;99089.09;;;28.95;43.38
54900;BME280;40801;41.924;25.562;2022-07-31T06:44:51;99080.25;;;29.29;43.47
54900;BME280;40801;41.924;25.562;2022-07-31T06:47:20;99083.03;;;29.58;42.36
54900;BME280;40801;41.924;25.562;2022-07-31T06:49:45;99089.72;;;29.74;42.07
54900;BME280;40801;41.924;25.562;2022-07-31T06:52:11;99085.66;;;29.91;41.43
54900;BME280;40801;41.924;25.562;2022-07-31T06:54:36;99087.53;;;29.81;41.39
54900;BME280;40801;41.924;25.562;2022-07-31T06:57:02;99087.38;;;30.14;41.27
54900;BME280;40801;41.924;25.562;2022-07-31T06:59:28;99082.81;;;30.20;40.79
54900;BME280;40801;41.924;25.562;2022-07-31T07:01:53;99092.94;;;30.39;40.55
54900;BME280;40801;41.924;25.562;2022-07-31T07:04:19;99085.59;;;30.45;40.96
54900;BME280;40801;41.924;25.562;2022-07-31T07:06:44;99089.31;;;30.90;40.54
54900;BME280;40801;41.924;25.562;2022-07-31T07:09:09;99082.25;;;31.10;39.62
54900;BME280;40801;41.924;25.562;2022-07-31T07:11:35;99086.31;;;30.97;39.68
54900;BME280;40801;41.924;25.562;2022-07-31T07:14:00;99085.53;;;30.96;39.16
54900;BME280;40801;41.924;25.562;2022-07-31T07:16:26;99077.44;;;31.11;39.15
54900;BME280;40801;41.924;25.562;2022-07-31T07:18:51;99087.88;;;31.32;39.06
54900;BME280;40801;41.924;25.562;2022-07-31T07:21:17;99087.13;;;31.19;38.98
54900;BME280;40801;41.924;25.562;2022-07-31T07:23:42;99084.00;;;31.30;38.93
54900;BME280;40801;41.924;25.562;2022-07-31T07:26:08;99080.94;;;31.37;38.38
54900;BME280;40801;41.924;25.562;2022-07-31T07:28:34;99086.66;;;31.55;38.14
54900;BME280;40801;41.924;25.562;2022-07-31T07:31:00;99087.56;;;31.52;38.02
54900;BME280;40801;41.924;25.562;2022-07-31T07:33:26;99074.78;;;31.64;37.98
54900;BME280;40801;41.924;25.562;2022-07-31T07:35:51;99075.41;;;31.68;37.93
54900;BME280;40801;41.924;25.562;2022-07-31T07:38:17;99073.41;;;31.68;37.86
54900;BME280;40801;41.924;25.562;2022-07-31T07:40:42;99072.72;;;31.77;37.88
54900;BME280;40801;41.924;25.562;2022-07-31T07:43:08;99069.84;;;31.90;37.76
54900;BME280;40801;41.924;25.562;2022-07-31T07:45:33;99065.22;;;31.96;37.53
54900;BME280;40801;41.924;25.562;2022-07-31T07:47:59;99067.28;;;32.04;37.15
54900;BME280;40801;41.924;25.562;2022-07-31T07:50:24;99067.56;;;31.97;36.87
54900;BME280;40801;41.924;25.562;2022-07-31T07:52:50;99074.41;;;32.05;36.79
54900;BME280;40801;41.924;25.562;2022-07-31T07:55:15;99074.84;;;32.26;36.87
54900;BME280;40801;41.924;25.562;2022-07-31T07:57:43;99072.47;;;32.64;35.21
54900;BME280;40801;41.924;25.562;2022-07-31T08:00:10;99069.16;;;33.06;35.37
54900;BME280;40801;41.924;25.562;2022-07-31T08:02:36;99083.09;;;33.15;35.42
54900;BME280;40801;41.924;25.562;2022-07-31T08:05:02;99069.78;;;33.56;34.31
54900;BME280;40801;41.924;25.562;2022-07-31T08:07:32;99064.81;;;33.42;34.51
54900;BME280;40801;41.924;25.562;2022-07-31T08:09:59;99070.00;;;33.76;34.36
54900;BME280;40801;41.924;25.562;2022-07-31T08:12:25;99074.97;;;34.33;33.89
54900;BME280;40801;41.924;25.562;2022-07-31T08:14:52;99069.81;;;34.40;33.46
54900;BME280;40801;41.924;25.562;2022-07-31T08:17:18;99074.97;;;34.66;33.13
54900;BME280;40801;41.924;25.562;2022-07-31T08:19:43;99075.00;;;34.90;33.01
54900;BME280;40801;41.924;25.562;2022-07-31T08:22:09;99072.66;;;35.27;31.86
54900;BME280;40801;41.924;25.562;2022-07-31T08:24:35;99070.72;;;35.57;31.49
54900;BME280;40801;41.924;25.562;2022-07-31T08:27:00;99073.34;;;35.60;31.37
54900;BME280;40801;41.924;25.562;2022-07-31T08:29:44;99062.63;;;35.88;30.99
54900;BME280;40801;41.924;25.562;2022-07-31T08:32:13;99065.00;;;36.10;30.80
54900;BME280;40801;41.924;25.562;2022-07-31T08:34:39;99053.13;;;36.50;29.79
54900;BME280;40801;41.924;25.562;2022-07-31T08:37:05;99053.81;;;36.45;29.95
54900;BME280;40801;41.924;25.562;2022-07-31T08:39:32;99059.28;;;36.54;29.61
54900;BME280;40801;41.924;25.562;2022-07-31T08:41:57;99058.91;;;36.82;29.16
54900;BME280;40801;41.924;25.562;2022-07-31T08:44:23;99055.75;;;36.95;28.48
54900;BME280;40801;41.924;25.562;2022-07-31T08:46:48;99057.28;;;36.96;28.56
54900;BME280;40801;41.924;25.562;2022-07-31T08:49:19;99050.81;;;37.10;28.34
54900;BME280;40801;41.924;25.562;2022-07-31T08:51:49;99053.84;;;37.06;28.62
54900;BME280;40801;41.924;25.562;2022-07-31T08:54:15;99050.53;;;37.08;28.39
54900;BME280;40801;41.924;25.562;2022-07-31T08:56:41;99054.97;;;36.94;28.40
54900;BME280;40801;41.924;25.562;2022-07-31T08:59:07;99051.47;;;37.45;27.69
54900;BME280;40801;41.924;25.562;2022-07-31T09:01:33;99049.88;;;37.65;27.88
54900;BME280;40801;41.924;25.562;2022-07-31T09:03:59;99049.72;;;38.11;27.44
54900;BME280;40801;41.924;25.562;2022-07-31T09:06:25;99052.50;;;38.05;27.11
54900;BME280;40801;41.924;25.562;2022-07-31T09:08:51;99044.00;;;38.31;27.05
54900;BME280;40801;41.924;25.562;2022-07-31T09:11:16;99049.16;;;38.38;26.50
54900;BME280;40801;41.924;25.562;2022-07-31T09:13:59;99052.25;;;38.83;26.22
54900;BME280;40801;41.924;25.562;2022-07-31T09:16:25;99042.03;;;39.02;25.75
54900;BME280;40801;41.924;25.562;2022-07-31T09:19:01;99035.63;;;38.96;25.91
54900;BME280;40801;41.924;25.562;2022-07-31T09:21:38;99038.69;;;38.93;25.80
54900;BME280;40801;41.924;25.562;2022-07-31T09:24:04;99035.34;;;38.03;26.65
54900;BME280;40801;41.924;25.562;2022-07-31T09:26:33;99040.97;;;38.03;27.03
54900;BME280;40801;41.924;25.562;2022-07-31T09:29:00;99031.91;;;38.62;26.94
54900;BME280;40801;41.924;25.562;2022-07-31T09:31:32;99026.88;;;38.83;25.93
54900;BME280;40801;41.924;25.562;2022-07-31T09:33:58;99028.78;;;39.09;25.76
54900;BME280;40801;41.924;25.562;2022-07-31T09:36:23;99024.06;;;38.94;26.52
54900;BME280;40801;41.924;25.562;2022-07-31T09:38:49;99024.47;;;39.47;25.83
54900;BME280;40801;41.924;25.562;2022-07-31T09:41:16;99020.66;;;39.83;25.32
54900;BME280;40801;41.924;25.562;2022-07-31T09:43:42;99017.31;;;39.51;25.25
54900;BME280;40801;41.924;25.562;2022-07-31T09:46:08;99017.34;;;39.68;25.23
54900;BME280;40801;41.924;25.562;2022-07-31T09:48:35;99012.44;;;40.02;24.81
54900;BME280;40801;41.924;25.562;2022-07-31T09:51:04;99013.41;;;40.44;25.00
54900;BME280;40801;41.924;25.562;2022-07-31T09:53:40;99004.38;;;40.45;24.03
54900;BME280;40801;41.924;25.562;2022-07-31T09:56:05;99006.47;;;40.34;24.16
54900;BME280;40801;41.924;25.562;2022-07-31T09:58:32;99007.66;;;40.66;23.84
54900;BME280;40801;41.924;25.562;2022-07-31T10:00:58;98997.00;;;40.95;23.69
54900;BME280;40801;41.924;25.562;2022-07-31T10:03:25;98992.38;;;41.38;23.19
54900;BME280;40801;41.924;25.562;2022-07-31T10:05:51;98983.91;;;41.33;22.94
54900;BME280;40801;41.924;25.562;2022-07-31T10:08:20;98990.94;;;41.21;23.30
54900;BME280;40801;41.924;25.562;2022-07-31T10:10:48;98978.41;;;41.46;22.52
54900;BME280;40801;41.924;25.562;2022-07-31T10:13:14;98975.72;;;40.77;23.07
54900;BME280;40801;41.924;25.562;2022-07-31T10:15:45;98973.03;;;41.01;22.66
54900;BME280;40801;41.924;25.562;2022-07-31T10:18:11;98973.28;;;41.09;22.83
54900;BME280;40801;41.924;25.562;2022-07-31T10:20:38;98973.06;;;40.49;22.86
54900;BME280;40801;41.924;25.562;2022-07-31T10:23:13;98965.03;;;41.05;22.51
54900;BME280;40801;41.924;25.562;2022-07-31T10:25:44;98954.28;;;41.39;22.48
54900;BME280;40801;41.924;25.562;2022-07-31T10:28:12;98964.44;;;41.24;22.85
54900;BME280;40801;41.924;25.562;2022-07-31T10:30:38;98965.03;;;41.05;22.99
54900;BME280;40801;41.924;25.562;2022-07-31T10:33:03;98959.31;;;41.16;22.65
54900;BME280;40801;41.924;25.562;2022-07-31T10:35:38;98951.47;;;41.39;22.45
54900;BME280;40801;41.924;25.562;2022-07-31T10:38:22;98950.53;;;41.56;21.96
54900;BME280;40801;41.924;25.562;2022-07-31T10:41:06;98948.53;;;41.81;21.09
54900;BME280;40801;41.924;25.562;2022-07-31T10:43:44;98942.31;;;41.82;21.28
54900;BME280;40801;41.924;25.562;2022-07-31T10:46:11;98946.53;;;41.75;21.69
54900;BME280;40801;41.924;25.562;2022-07-31T10:48:36;98945.94;;;42.07;21.10
54900;BME280;40801;41.924;25.562;2022-07-31T10:51:06;98942.88;;;42.29;20.95
54900;BME280;40801;41.924;25.562;2022-07-31T10:53:34;98933.81;;;42.55;20.16
54900;BME280;40801;41.924;25.562;2022-07-31T10:58:26;98936.69;;;42.68;19.82
54900;BME280;40801;41.924;25.562;2022-07-31T11:01:03;98931.50;;;43.23;19.00
54900;BME280;40801;41.924;25.562;2022-07-31T11:03:38;98931.19;;;42.57;19.62
54900;BME280;40801;41.924;25.562;2022-07-31T11:06:04;98921.47;;;42.90;19.45
54900;BME280;40801;41.924;25.562;2022-07-31T11:08:46;98928.69;;;43.23;19.34
54900;BME280;40801;41.924;25.562;2022-07-31T11:11:12;98922.72;;;43.72;18.96
54900;BME280;40801;41.924;25.562;2022-07-31T11:13:52;98916.09;;;43.38;18.82
54900;BME280;40801;41.924;25.562;2022-07-31T11:16:20;98914.53;;;43.69;19.22
54900;BME280;40801;41.924;25.562;2022-07-31T11:18:56;98916.50;;;44.27;18.31
54900;BME280;40801;41.924;25.562;2022-07-31T11:23:57;98908.88;;;44.08;18.15
54900;BME280;40801;41.924;25.562;2022-07-31T11:26:22;98905.56;;;44.17;17.84
54900;BME280;40801;41.924;25.562;2022-07-31T11:28:48;98898.91;;;44.15;18.41
54900;BME280;40801;41.924;25.562;2022-07-31T11:31:13;98902.69;;;43.65;19.09
54900;BME280;40801;41.924;25.562;2022-07-31T11:33:41;98893.97;;;44.29;18.40
54900;BME280;40801;41.924;25.562;2022-07-31T11:36:19;98888.13;;;44.61;17.85
54900;BME280;40801;41.924;25.562;2022-07-31T11:38:49;98896.59;;;43.87;18.34
54900;BME280;40801;41.924;25.562;2022-07-31T11:41:15;98888.16;;;43.23;19.01
54900;BME280;40801;41.924;25.562;2022-07-31T11:43:46;98883.00;;;43.53;19.09
54900;BME280;40801;41.924;25.562;2022-07-31T11:46:17;98882.78;;;43.38;19.43
54900;BME280;40801;41.924;25.562;2022-07-31T11:48:43;98874.16;;;43.57;19.00
54900;BME280;40801;41.924;25.562;2022-07-31T11:51:08;98878.25;;;43.88;19.02
54900;BME280;40801;41.924;25.562;2022-07-31T11:53:40;98871.88;;;44.35;18.28
54900;BME280;40801;41.924;25.562;2022-07-31T11:56:06;98877.00;;;44.49;18.35
54900;BME280;40801;41.924;25.562;2022-07-31T11:58:31;98861.47;;;44.37;18.29
54900;BME280;40801;41.924;25.562;2022-07-31T12:01:03;98869.13;;;43.50;18.98
54900;BME280;40801;41.924;25.562;2022-07-31T12:03:37;98866.19;;;42.59;19.41
54900;BME280;40801;41.924;25.562;2022-07-31T12:06:05;98868.16;;;41.84;20.42
54900;BME280;40801;41.924;25.562;2022-07-31T12:08:31;98848.28;;;41.05;21.16
54900;BME280;40801;41.924;25.562;2022-07-31T12:10:58;98859.38;;;40.62;21.40
54900;BME280;40801;41.924;25.562;2022-07-31T12:13:28;98854.19;;;40.19;22.24
54900;BME280;40801;41.924;25.562;2022-07-31T12:21:09;98862.94;;;38.25;24.92
54900;BME280;40801;41.924;25.562;2022-07-31T12:23:41;98855.78;;;38.41;25.38
54900;BME280;40801;41.924;25.562;2022-07-31T12:26:10;98854.38;;;39.52;24.96
54900;BME280;40801;41.924;25.562;2022-07-31T12:28:36;98854.22;;;40.66;23.38
54900;BME280;40801;41.924;25.562;2022-07-31T12:31:01;98846.13;;;40.87;23.21
54900;BME280;40801;41.924;25.562;2022-07-31T12:33:38;98850.19;;;40.91;23.36
54900;BME280;40801;41.924;25.562;2022-07-31T12:36:11;98835.75;;;40.59;23.27
54900;BME280;40801;41.924;25.562;2022-07-31T12:38:36;98840.53;;;41.41;23.10
54900;BME280;40801;41.924;25.562;2022-07-31T12:41:05;98836.25;;;40.99;23.06
54900;BME280;40801;41.924;25.562;2022-07-31T12:43:31;98834.72;;;41.28;23.28
54900;BME280;40801;41.924;25.562;2022-07-31T12:45:57;98844.19;;;40.65;23.94
54900;BME280;40801;41.924;25.562;2022-07-31T12:48:27;98850.72;;;41.25;23.57
54900;BME280;40801;41.924;25.562;2022-07-31T12:50:52;98844.75;;;40.05;24.74
54900;BME280;40801;41.924;25.562;2022-07-31T12:53:18;98841.56;;;39.40;24.85
54900;BME280;40801;41.924;25.562;2022-07-31T12:55:43;98849.00;;;39.26;25.47
54900;BME280;40801;41.924;25.562;2022-07-31T12:58:08;98841.28;;;38.98;25.38
54900;BME280;40801;41.924;25.562;2022-07-31T13:00:34;98833.88;;;39.29;25.13
54900;BME280;40801;41.924;25.562;2022-07-31T13:03:00;98840.09;;;40.13;24.52
54900;BME280;40801;41.924;25.562;2022-07-31T13:05:25;98846.06;;;40.57;23.57
54900;BME280;40801;41.924;25.562;2022-07-31T13:07:51;98848.13;;;40.56;23.27
54900;BME280;40801;41.924;25.562;2022-07-31T13:10:17;98848.56;;;41.01;22.61
54900;BME280;40801;41.924;25.562;2022-07-31T13:12:43;98842.38;;;41.38;22.29
54900;BME280;40801;41.924;25.562;2022-07-31T13:15:09;98839.03;;;41.64;21.87
54900;BME280;40801;41.924;25.562;2022-07-31T13:17:34;98841.91;;;42.26;21.61
54900;BME280;40801;41.924;25.562;2022-07-31T13:20:00;98846.75;;;41.04;22.10